sensor_id;sensor_type;location;lat;lon;timestamp;P1;durP1;ratioP1;P2;durP2;ratioP2
18194;SDS011;9223;50.988;3.162;2022-09-03T00:00:54;14.43;;;11.45;;
18194;SDS011;9223;50.988;3.162;2022-09-03T00:06:59;12.15;;;10.90;;
18194;SDS011;9223;50.988;3.162;2022-09-03T00:13:04;12.82;;;11.63;;
18194;SDS011;9223;50.988;3.162;2022-09-03T00:19:11;12.88;;;11.45;;
18194;SDS011;9223;50.988;3.162;2022-09-03T00:25:18;13.10;;;11.30;;
18194;SDS011;9223;50.988;3.162;2022-09-03T00:31:27;12.77;;;11.45;;
18194;SDS011;9223;50.988;3.162;2022-09-03T00:37:33;13.05;;;11.05;;
18194;SDS011;9223;50.988;3.162;2022-09-03T00:43:42;16.10;;;11.90;;
18194;SDS011;9223;50.988;3.162;2022-09-03T00:49:50;13.68;;;11.65;;
18194;SDS011;9223;50.988;3.162;2022-09-03T00:55:59;12.35;;;11.05;;
18194;SDS011;9223;50.988;3.162;2022-09-03T01:02:09;12.45;;;11.25;;
18194;SDS011;9223;50.988;3.162;2022-09-03T01:08:21;13.23;;;11.93;;
18194;SDS011;9223;50.988;3.162;2022-09-03T01:14:33;12.90;;;11.07;;
18194;SDS011;9223;50.988;3.162;2022-09-03T01:20:45;12.73;;;11.43;;
18194;SDS011;9223;50.988;3.162;2022-09-03T01:26:56;13.55;;;12.25;;
18194;SDS011;9223;50.988;3.162;2022-09-03T01:33:07;13.68;;;12.18;;
18194;SDS011;9223;50.988;3.162;2022-09-03T01:39:16;12.98;;;11.73;;
18194;SDS011;9223;50.988;3.162;2022-09-03T01:45:28;13.85;;;12.45;;
18194;SDS011;9223;50.988;3.162;2022-09-03T01:51:38;17.13;;;15.43;;
18194;SDS011;9223;50.988;3.162;2022-09-03T01:57:46;17.23;;;15.52;;
18194;SDS011;9223;50.988;3.162;2022-09-03T02:03:51;18.58;;;16.77;;
18194;SDS011;9223;50.988;3.162;2022-09-03T02:10:04;19.13;;;17.20;;
18194;SDS011;9223;50.988;3.162;2022-09-03T02:16:09;20.73;;;17.80;;
18194;SDS011;9223;50.988;3.162;2022-09-03T02:22:14;19.88;;;17.65;;
18194;SDS011;9223;50.988;3.162;2022-09-03T02:28:19;20.23;;;18.15;;
18194;SDS011;9223;50.988;3.162;2022-09-03T02:34:22;19.95;;;17.80;;
18194;SDS011;9223;50.988;3.162;2022-09-03T02:40:26;19.08;;;17.15;;
18194;SDS011;9223;50.988;3.162;2022-09-03T02:46:33;18.85;;;16.52;;
18194;SDS011;9223;50.988;3.162;2022-09-03T02:52:37;19.48;;;17.45;;
18194;SDS011;9223;50.988;3.162;2022-09-03T02:58:42;19.45;;;17.42;;
18194;SDS011;9223;50.988;3.162;2022-09-03T03:04:47;19.17;;;16.80;;
18194;SDS011;9223;50.988;3.162;2022-09-03T03:10:50;18.60;;;16.70;;
18194;SDS011;9223;50.988;3.162;2022-09-03T03:16:54;19.52;;;17.50;;
18194;SDS011;9223;50.988;3.162;2022-09-03T03:23:01;19.50;;;17.00;;
18194;SDS011;9223;50.988;3.162;2022-09-03T03:29:06;19.95;;;16.98;;
18194;SDS011;9223;50.988;3.162;2022-09-03T03:35:09;19.38;;;17.08;;
18194;SDS011;9223;50.988;3.162;2022-09-03T03:41:16;21.15;;;18.17;;
18194;SDS011;9223;50.988;3.162;2022-09-03T03:47:19;19.25;;;17.25;;
18194;SDS011;9223;50.988;3.162;2022-09-03T03:53:23;19.00;;;17.00;;
18194;SDS011;9223;50.988;3.162;2022-09-03T03:59:28;20.90;;;18.63;;
18194;SDS011;9223;50.988;3.162;2022-09-03T04:05:31;23.23;;;18.45;;
18194;SDS011;9223;50.988;3.162;2022-09-03T04:11:34;21.00;;;18.65;;
18194;SDS011;9223;50.988;3.162;2022-09-03T04:17:39;20.08;;;17.88;;
18194;SDS011;9223;50.988;3.162;2022-09-03T04:23:45;21.35;;;19.08;;
18194;SDS011;9223;50.988;3.162;2022-09-03T04:29:49;22.35;;;19.67;;
18194;SDS011;9223;50.988;3.162;2022-09-03T04:35:56;22.45;;;18.73;;
18194;SDS011;9223;50.988;3.162;2022-09-03T04:42:03;21.15;;;18.95;;
18194;SDS011;9223;50.988;3.162;2022-09-03T04:48:06;23.83;;;19.10;;
18194;SDS011;9223;50.988;3.162;2022-09-03T04:54:13;22.63;;;19.13;;
18194;SDS011;9223;50.988;3.162;2022-09-03T05:00:17;24.33;;;19.70;;
18194;SDS011;9223;50.988;3.162;2022-09-03T05:06:20;23.42;;;19.20;;
18194;SDS011;9223;50.988;3.162;2022-09-03T05:12:26;23.70;;;20.10;;
18194;SDS011;9223;50.988;3.162;2022-09-03T05:18:30;21.90;;;18.92;;
18194;SDS011;9223;50.988;3.162;2022-09-03T05:24:36;23.33;;;19.10;;
18194;SDS011;9223;50.988;3.162;2022-09-03T05:30:40;22.95;;;19.35;;
18194;SDS011;9223;50.988;3.162;2022-09-03T05:36:44;21.27;;;18.98;;
18194;SDS011;9223;50.988;3.162;2022-09-03T05:42:53;21.77;;;19.08;;
18194;SDS011;9223;50.988;3.162;2022-09-03T05:48:58;22.17;;;18.85;;
18194;SDS011;9223;50.988;3.162;2022-09-03T05:55:02;21.50;;;18.35;;
18194;SDS011;9223;50.988;3.162;2022-09-03T06:01:09;23.75;;;19.08;;
18194;SDS011;9223;50.988;3.162;2022-09-03T06:07:14;20.88;;;18.67;;
18194;SDS011;9223;50.988;3.162;2022-09-03T06:13:17;22.17;;;18.35;;
18194;SDS011;9223;50.988;3.162;2022-09-03T06:19:21;23.35;;;18.80;;
18194;SDS011;9223;50.988;3.162;2022-09-03T06:25:26;21.40;;;18.50;;
18194;SDS011;9223;50.988;3.162;2022-09-03T06:31:29;21.60;;;18.20;;
18194;SDS011;9223;50.988;3.162;2022-09-03T06:37:37;22.52;;;18.55;;
18194;SDS011;9223;50.988;3.162;2022-09-03T06:43:42;22.00;;;17.70;;
18194;SDS011;9223;50.988;3.162;2022-09-03T06:49:46;19.75;;;17.17;;
18194;SDS011;9223;50.988;3.162;2022-09-03T06:55:53;21.15;;;17.02;;
18194;SDS011;9223;50.988;3.162;2022-09-03T07:01:58;23.67;;;17.48;;
18194;SDS011;9223;50.988;3.162;2022-09-03T07:08:04;20.45;;;16.67;;
18194;SDS011;9223;50.988;3.162;2022-09-03T07:14:08;19.42;;;15.45;;
18194;SDS011;9223;50.988;3.162;2022-09-03T07:20:13;18.17;;;15.23;;
18194;SDS011;9223;50.988;3.162;2022-09-03T07:26:17;17.13;;;15.32;;
18194;SDS011;9223;50.988;3.162;2022-09-03T07:32:21;18.45;;;16.42;;
18194;SDS011;9223;50.988;3.162;2022-09-03T07:38:25;18.55;;;15.43;;
18194;SDS011;9223;50.988;3.162;2022-09-03T07:44:29;20.90;;;14.05;;
18194;SDS011;9223;50.988;3.162;2022-09-03T07:50:32;14.68;;;12.80;;
18194;SDS011;9223;50.988;3.162;2022-09-03T07:56:41;13.38;;;11.55;;
18194;SDS011;9223;50.988;3.162;2022-09-03T08:02:44;12.85;;;11.45;;
18194;SDS011;9223;50.988;3.162;2022-09-03T08:08:47;12.50;;;11.18;;
18194;SDS011;9223;50.988;3.162;2022-09-03T08:14:53;13.52;;;12.23;;
18194;SDS011;9223;50.988;3.162;2022-09-03T08:20:58;12.48;;;10.68;;
18194;SDS011;9223;50.988;3.162;2022-09-03T08:27:01;21.58;;;12.23;;
18194;SDS011;9223;50.988;3.162;2022-09-03T08:33:06;19.98;;;12.55;;
18194;SDS011;9223;50.988;3.162;2022-09-03T08:39:10;15.63;;;10.38;;
18194;SDS011;9223;50.988;3.162;2022-09-03T08:45:14;12.43;;;11.13;;
18194;SDS011;9223;50.988;3.162;2022-09-03T08:51:20;12.88;;;11.55;;
18194;SDS011;9223;50.988;3.162;2022-09-03T08:57:28;12.68;;;11.35;;
18194;SDS011;9223;50.988;3.162;2022-09-03T09:03:41;10.32;;;9.25;;
18194;SDS011;9223;50.988;3.162;2022-09-03T09:09:48;13.55;;;12.23;;
18194;SDS011;9223;50.988;3.162;2022-09-03T09:15:53;13.75;;;12.35;;
18194;SDS011;9223;50.988;3.162;2022-09-03T09:21:59;14.45;;;12.98;;
18194;SDS011;9223;50.988;3.162;2022-09-03T09:28:07;13.90;;;12.38;;
18194;SDS011;9223;50.988;3.162;2022-09-03T09:34:15;11.27;;;10.25;;
18194;SDS011;9223;50.988;3.162;2022-09-03T09:40:22;11.90;;;10.80;;
18194;SDS011;9223;50.988;3.162;2022-09-03T09:46:30;13.95;;;12.55;;
18194;SDS011;9223;50.988;3.162;2022-09-03T09:52:37;13.48;;;12.07;;
18194;SDS011;9223;50.988;3.162;2022-09-03T09:58:40;15.30;;;13.80;;
18194;SDS011;9223;50.988;3.162;2022-09-03T10:04:45;15.07;;;13.63;;
18194;SDS011;9223;50.988;3.162;2022-09-03T10:10:49;14.45;;;12.95;;
18194;SDS011;9223;50.988;3.162;2022-09-03T10:16:54;15.05;;;13.60;;
18194;SDS011;9223;50.988;3.162;2022-09-03T10:23:05;16.00;;;14.40;;
18194;SDS011;9223;50.988;3.162;2022-09-03T10:29:09;16.92;;;14.40;;
18194;SDS011;9223;50.988;3.162;2022-09-03T10:35:17;16.48;;;13.05;;
18194;SDS011;9223;50.988;3.162;2022-09-03T10:41:27;15.80;;;13.40;;
18194;SDS011;9223;50.988;3.162;2022-09-03T10:47:37;11.65;;;10.55;;
18194;SDS011;9223;50.988;3.162;2022-09-03T10:53:46;13.95;;;12.55;;
18194;SDS011;9223;50.988;3.162;2022-09-03T11:00:00;12.07;;;10.90;;
18194;SDS011;9223;50.988;3.162;2022-09-03T11:06:08;12.05;;;10.85;;
18194;SDS011;9223;50.988;3.162;2022-09-03T11:12:15;12.55;;;11.10;;
18194;SDS011;9223;50.988;3.162;2022-09-03T11:18:24;11.35;;;10.15;;
18194;SDS011;9223;50.988;3.162;2022-09-03T11:24:29;12.27;;;10.98;;
18194;SDS011;9223;50.988;3.162;2022-09-03T11:30:36;12.95;;;11.70;;
18194;SDS011;9223;50.988;3.162;2022-09-03T11:36:42;16.58;;;12.85;;
18194;SDS011;9223;50.988;3.162;2022-09-03T11:42:48;11.57;;;10.25;;
18194;SDS011;9223;50.988;3.162;2022-09-03T11:48:52;12.70;;;11.40;;
18194;SDS011;9223;50.988;3.162;2022-09-03T11:54:57;14.07;;;12.57;;
18194;SDS011;9223;50.988;3.162;2022-09-03T12:01:01;14.25;;;11.98;;
18194;SDS011;9223;50.988;3.162;2022-09-03T12:13:34;14.05;;;12.75;;
18194;SDS011;9223;50.988;3.162;2022-09-03T12:19:49;12.23;;;11.05;;
18194;SDS011;9223;50.988;3.162;2022-09-03T12:25:54;13.60;;;12.40;;
18194;SDS011;9223;50.988;3.162;2022-09-03T12:32:06;12.10;;;10.90;;
18194;SDS011;9223;50.988;3.162;2022-09-03T12:38:11;7.85;;;7.05;;
18194;SDS011;9223;50.988;3.162;2022-09-03T12:44:23;10.57;;;9.57;;
18194;SDS011;9223;50.988;3.162;2022-09-03T12:50:31;10.70;;;9.60;;
18194;SDS011;9223;50.988;3.162;2022-09-03T12:56:35;8.68;;;7.55;;
18194;SDS011;9223;50.988;3.162;2022-09-03T13:02:44;7.50;;;6.70;;
18194;SDS011;9223;50.988;3.162;2022-09-03T13:08:50;7.10;;;6.22;;
18194;SDS011;9223;50.988;3.162;2022-09-03T13:14:55;8.25;;;7.45;;
18194;SDS011;9223;50.988;3.162;2022-09-03T13:21:05;5.70;;;5.30;;
18194;SDS011;9223;50.988;3.162;2022-09-03T13:27:14;6.00;;;5.50;;
18194;SDS011;9223;50.988;3.162;2022-09-03T13:33:21;6.05;;;4.90;;
18194;SDS011;9223;50.988;3.162;2022-09-03T13:39:30;5.97;;;5.47;;
18194;SDS011;9223;50.988;3.162;2022-09-03T13:45:40;5.35;;;4.95;;
18194;SDS011;9223;50.988;3.162;2022-09-03T13:51:47;5.30;;;4.90;;
18194;SDS011;9223;50.988;3.162;2022-09-03T13:57:52;5.32;;;4.93;;
18194;SDS011;9223;50.988;3.162;2022-09-03T14:04:03;6.40;;;5.90;;
18194;SDS011;9223;50.988;3.162;2022-09-03T14:10:18;5.30;;;4.90;;
18194;SDS011;9223;50.988;3.162;2022-09-03T14:16:24;4.20;;;3.90;;
18194;SDS011;9223;50.988;3.162;2022-09-03T14:22:37;4.80;;;4.43;;
18194;SDS011;9223;50.988;3.162;2022-09-03T14:28:43;5.22;;;4.82;;
18194;SDS011;9223;50.988;3.162;2022-09-03T14:35:06;6.38;;;5.88;;
18194;SDS011;9223;50.988;3.162;2022-09-03T14:41:21;6.10;;;5.60;;
18194;SDS011;9223;50.988;3.162;2022-09-03T14:47:29;5.20;;;4.53;;
18194;SDS011;9223;50.988;3.162;2022-09-03T14:53:46;5.28;;;4.88;;
18194;SDS011;9223;50.988;3.162;2022-09-03T15:00:06;6.88;;;6.18;;
18194;SDS011;9223;50.988;3.162;2022-09-03T15:06:22;7.18;;;6.57;;
18194;SDS011;9223;50.988;3.162;2022-09-03T15:12:33;7.05;;;6.30;;
18194;SDS011;9223;50.988;3.162;2022-09-03T15:18:44;6.95;;;6.38;;
18194;SDS011;9223;50.988;3.162;2022-09-03T15:24:53;6.25;;;5.75;;
18194;SDS011;9223;50.988;3.162;2022-09-03T15:30:59;5.80;;;5.20;;
18194;SDS011;9223;50.988;3.162;2022-09-03T15:37:09;5.65;;;5.10;;
18194;SDS011;9223;50.988;3.162;2022-09-03T15:43:14;4.78;;;4.38;;
18194;SDS011;9223;50.988;3.162;2022-09-03T15:49:35;5.88;;;5.25;;
18194;SDS011;9223;50.988;3.162;2022-09-03T15:55:47;5.75;;;5.25;;
18194;SDS011;9223;50.988;3.162;2022-09-03T16:01:51;6.07;;;5.57;;
18194;SDS011;9223;50.988;3.162;2022-09-03T16:08:01;6.32;;;5.70;;
18194;SDS011;9223;50.988;3.162;2022-09-03T16:14:09;5.70;;;5.10;;
18194;SDS011;9223;50.988;3.162;2022-09-03T16:20:16;6.25;;;5.65;;
18194;SDS011;9223;50.988;3.162;2022-09-03T16:26:24;3.10;;;2.90;;
18194;SDS011;9223;50.988;3.162;2022-09-03T16:32:34;3.03;;;2.72;;
18194;SDS011;9223;50.988;3.162;2022-09-03T16:38:42;3.45;;;3.25;;
18194;SDS011;9223;50.988;3.162;2022-09-03T16:44:51;5.93;;;3.17;;
18194;SDS011;9223;50.988;3.162;2022-09-03T16:51:05;3.28;;;2.72;;
18194;SDS011;9223;50.988;3.162;2022-09-03T16:57:13;4.68;;;3.70;;
18194;SDS011;9223;50.988;3.162;2022-09-03T17:09:46;4.63;;;4.20;;
18194;SDS011;9223;50.988;3.162;2022-09-03T17:15:57;8.15;;;7.35;;
18194;SDS011;9223;50.988;3.162;2022-09-03T17:22:09;11.20;;;10.10;;
18194;SDS011;9223;50.988;3.162;2022-09-03T17:28:21;10.43;;;9.43;;
18194;SDS011;9223;50.988;3.162;2022-09-03T17:34:30;7.15;;;6.45;;
18194;SDS011;9223;50.988;3.162;2022-09-03T17:40:37;9.63;;;8.65;;
18194;SDS011;9223;50.988;3.162;2022-09-03T17:46:46;15.57;;;14.00;;
18194;SDS011;9223;50.988;3.162;2022-09-03T17:52:51;10.07;;;9.18;;
18194;SDS011;9223;50.988;3.162;2022-09-03T17:59:01;16.08;;;14.48;;
18194;SDS011;9223;50.988;3.162;2022-09-03T18:05:09;10.77;;;9.73;;
18194;SDS011;9223;50.988;3.162;2022-09-03T18:11:20;14.50;;;13.00;;
18194;SDS011;9223;50.988;3.162;2022-09-03T18:17:26;16.95;;;15.23;;
18194;SDS011;9223;50.988;3.162;2022-09-03T18:23:32;17.98;;;15.85;;
18194;SDS011;9223;50.988;3.162;2022-09-03T18:29:57;21.42;;;19.23;;
18194;SDS011;9223;50.988;3.162;2022-09-03T18:36:20;21.77;;;18.80;;
18194;SDS011;9223;50.988;3.162;2022-09-03T18:42:46;21.20;;;18.58;;
18194;SDS011;9223;50.988;3.162;2022-09-03T18:49:13;19.23;;;17.15;;
18194;SDS011;9223;50.988;3.162;2022-09-03T18:55:41;20.50;;;18.25;;
18194;SDS011;9223;50.988;3.162;2022-09-03T19:02:09;21.70;;;19.50;;
18194;SDS011;9223;50.988;3.162;2022-09-03T19:08:35;26.65;;;23.48;;
18194;SDS011;9223;50.988;3.162;2022-09-03T19:14:59;28.60;;;25.30;;
18194;SDS011;9223;50.988;3.162;2022-09-03T19:21:28;29.58;;;26.48;;
18194;SDS011;9223;50.988;3.162;2022-09-03T19:27:55;31.15;;;27.83;;
18194;SDS011;9223;50.988;3.162;2022-09-03T19:34:26;33.75;;;28.25;;
18194;SDS011;9223;50.988;3.162;2022-09-03T19:40:58;29.42;;;26.30;;
18194;SDS011;9223;50.988;3.162;2022-09-03T19:47:24;31.42;;;28.00;;
18194;SDS011;9223;50.988;3.162;2022-09-03T19:53:46;35.90;;;31.90;;
18194;SDS011;9223;50.988;3.162;2022-09-03T20:00:10;37.83;;;33.00;;
18194;SDS011;9223;50.988;3.162;2022-09-03T20:06:33;39.58;;;33.53;;
18194;SDS011;9223;50.988;3.162;2022-09-03T20:12:59;39.58;;;34.33;;
18194;SDS011;9223;50.988;3.162;2022-09-03T20:19:10;42.75;;;36.55;;
18194;SDS011;9223;50.988;3.162;2022-09-03T20:25:21;40.13;;;35.25;;
18194;SDS011;9223;50.988;3.162;2022-09-03T20:31:29;38.67;;;33.40;;
18194;SDS011;9223;50.988;3.162;2022-09-03T20:37:43;40.72;;;35.13;;
18194;SDS011;9223;50.988;3.162;2022-09-03T20:43:57;41.72;;;34.15;;
18194;SDS011;9223;50.988;3.162;2022-09-03T20:50:09;34.45;;;29.98;;
18194;SDS011;9223;50.988;3.162;2022-09-03T20:56:18;26.05;;;22.67;;
18194;SDS011;9223;50.988;3.162;2022-09-03T21:02:27;36.30;;;32.03;;
18194;SDS011;9223;50.988;3.162;2022-09-03T21:08:43;35.28;;;31.38;;
18194;SDS011;9223;50.988;3.162;2022-09-03T21:14:51;37.83;;;31.55;;
18194;SDS011;9223;50.988;3.162;2022-09-03T21:20:59;41.25;;;33.30;;
18194;SDS011;9223;50.988;3.162;2022-09-03T21:27:05;39.47;;;32.75;;
18194;SDS011;9223;50.988;3.162;2022-09-03T21:33:15;39.33;;;33.70;;
18194;SDS011;9223;50.988;3.162;2022-09-03T21:39:23;39.38;;;33.38;;
18194;SDS011;9223;50.988;3.162;2022-09-03T21:45:29;39.53;;;33.30;;
18194;SDS011;9223;50.988;3.162;2022-09-03T21:51:36;38.45;;;32.60;;
18194;SDS011;9223;50.988;3.162;2022-09-03T21:57:43;40.63;;;33.42;;
18194;SDS011;9223;50.988;3.162;2022-09-03T22:03:49;40.03;;;33.55;;
18194;SDS011;9223;50.988;3.162;2022-09-03T22:09:56;44.55;;;33.80;;
18194;SDS011;9223;50.988;3.162;2022-09-03T22:16:05;39.60;;;33.60;;
18194;SDS011;9223;50.988;3.162;2022-09-03T22:22:15;39.53;;;32.45;;
18194;SDS011;9223;50.988;3.162;2022-09-03T22:28:21;41.72;;;34.08;;
18194;SDS011;9223;50.988;3.162;2022-09-03T22:34:38;43.53;;;35.10;;
18194;SDS011;9223;50.988;3.162;2022-09-03T22:40:46;39.08;;;32.38;;
18194;SDS011;9223;50.988;3.162;2022-09-03T22:46:57;38.08;;;31.83;;
18194;SDS011;9223;50.988;3.162;2022-09-03T22:53:06;40.03;;;32.05;;
18194;SDS011;9223;50.988;3.162;2022-09-03T22:59:15;40.90;;;32.10;;
18194;SDS011;9223;50.988;3.162;2022-09-03T23:05:26;37.22;;;30.70;;
18194;SDS011;9223;50.988;3.162;2022-09-03T23:11:33;39.92;;;32.53;;
18194;SDS011;9223;50.988;3.162;2022-09-03T23:17:39;40.17;;;33.22;;
18194;SDS011;9223;50.988;3.162;2022-09-03T23:23:48;38.15;;;31.17;;
18194;SDS011;9223;50.988;3.162;2022-09-03T23:29:54;41.58;;;33.08;;
18194;SDS011;9223;50.988;3.162;2022-09-03T23:36:00;39.63;;;33.17;;
18194;SDS011;9223;50.988;3.162;2022-09-03T23:42:12;39.60;;;32.25;;
18194;SDS011;9223;50.988;3.162;2022-09-03T23:48:20;41.22;;;32.67;;
18194;SDS011;9223;50.988;3.162;2022-09-03T23:54:28;40.83;;;32.50;;
